Time;durP1;ratioP1;P1;durP2;ratioP2;P2;SDS_P1;SDS_P2;PMS_P1;PMS_P2;Temp;Humidity;BMP_temperature;BMP_pressure;BME280_temperature;BME280_humidity;BME280_pressure;Samples;Min_cycle;Max_cycle;Signal;HPM_P1;HPM_P2
2022/01/12 00:01:06;;;;;;;139.40;69.47;;;;;;;-5.67;75.64;98161.20;1669932;85;21072;-81
2022/01/12 00:03:34;;;;;;;142.18;69.53;;;;;;;-5.63;75.87;98158.15;1669935;85;21075;-81
2022/01/12 00:06:02;;;;;;;125.12;66.30;;;;;;;-5.64;76.16;98156.48;1669387;86;21059;-81
2022/01/12 00:08:27;;;;;;;116.37;60.85;;;;;;;-5.65;76.16;98161.16;1670365;85;20995;-80
2022/01/12 00:10:56;;;;;;;116.28;59.38;;;;;;;-5.59;76.33;98158.45;1669523;86;21064;-81
2022/01/12 00:13:21;;;;;;;113.05;60.38;;;;;;;-5.58;76.45;98162.22;1669562;85;21055;-81
2022/01/12 00:15:47;;;;;;;124.90;62.80;;;;;;;-5.49;76.63;98170.03;1669666;86;21107;-80
2022/01/12 00:18:13;;;;;;;112.10;61.02;;;;;;;-5.40;76.48;98164.70;1669846;85;21454;-81
2022/01/12 00:20:38;;;;;;;123.33;60.43;;;;;;;-5.36;76.44;98165.04;1669704;85;21063;-81
2022/01/12 00:23:04;;;;;;;113.32;60.52;;;;;;;-5.32;76.43;98162.81;1669609;85;21104;-81
2022/01/12 00:25:33;;;;;;;120.00;60.78;;;;;;;-5.30;76.38;98164.87;1669594;86;21078;-81
2022/01/12 00:33:25;;;;;;;118.35;59.40;;;;;;;-5.18;76.26;98167.08;1661205;86;21040;-81
2022/01/12 00:35:54;;;;;;;113.30;56.02;;;;;;;-5.19;76.19;98174.73;1662053;86;21461;-81
2022/01/12 00:38:22;;;;;;;118.62;58.98;;;;;;;-5.15;76.38;98175.86;1661599;86;21418;-81
2022/01/12 00:40:50;;;;;;;111.17;60.60;;;;;;;-5.06;76.62;98177.30;1661651;86;21016;-81
2022/01/12 00:43:17;;;;;;;117.17;60.35;;;;;;;-4.99;76.74;98176.71;1655854;87;21059;-82
2022/01/12 00:45:43;;;;;;;114.42;58.65;;;;;;;-4.93;76.71;98178.63;1655007;87;21020;-81
2022/01/12 00:48:09;;;;;;;118.72;59.90;;;;;;;-4.97;76.63;98181.30;1660986;86;21050;-81
2022/01/12 00:50:35;;;;;;;109.85;58.52;;;;;;;-4.94;76.72;98187.55;1661452;86;21366;-81
2022/01/12 00:53:03;;;;;;;108.10;56.65;;;;;;;-4.84;76.81;98180.09;1657684;86;21032;-81
2022/01/12 00:55:29;;;;;;;112.15;58.17;;;;;;;-4.85;76.57;98180.53;1662853;83;21008;-81
2022/01/12 00:57:55;;;;;;;111.92;53.80;;;;;;;-4.86;76.45;98177.60;1668846;85;21067;-81
2022/01/12 01:00:21;;;;;;;108.83;54.88;;;;;;;-4.81;76.70;98181.27;1689196;85;20957;-81
2022/01/12 01:02:47;;;;;;;112.30;57.67;;;;;;;-4.78;76.65;98179.91;1689423;85;21031;-81
2022/01/12 01:05:15;;;;;;;107.22;56.83;;;;;;;-4.73;76.83;98174.69;1669671;85;21083;-81
2022/01/12 01:07:41;;;;;;;114.72;58.23;;;;;;;-4.65;76.94;98169.81;1689341;85;20988;-81
2022/01/12 01:10:12;;;;;;;122.58;60.75;;;;;;;-4.55;77.03;98180.09;1689419;85;20996;-81
2022/01/12 01:12:35;;;;;;;119.13;59.53;;;;;;;-4.49;76.92;98175.70;1669075;85;21012;-82
2022/01/12 01:15:10;;;;;;;135.20;66.97;;;;;;;-4.52;76.76;98167.75;1689334;85;21393;-81
2022/01/12 01:25:42;;;;;;;137.50;64.47;;;;;;;-4.45;77.44;98173.45;1668423;85;21115;-80
2022/01/12 01:28:08;;;;;;;139.28;70.62;;;;;;;-4.46;77.40;98168.83;1689544;85;21470;-81
2022/01/12 01:30:35;;;;;;;141.97;69.62;;;;;;;-4.47;77.39;98167.16;1689948;84;21056;-81
2022/01/12 01:33:05;;;;;;;145.30;66.35;;;;;;;-4.53;77.47;98159.75;1695179;85;21513;-81
2022/01/12 01:35:30;;;;;;;122.07;62.43;;;;;;;-4.58;77.44;98163.66;1694681;85;21048;-81
2022/01/12 01:37:59;;;;;;;114.95;56.35;;;;;;;-4.59;77.94;98159.91;1695275;85;21107;-81
2022/01/12 01:40:24;;;;;;;116.80;58.13;;;;;;;-4.76;78.55;98170.98;1695185;84;21462;-81
2022/01/12 01:53:37;;;;;;;125.90;57.27;;;;;;;-5.14;79.56;98186.83;1697718;83;21438;-80
2022/01/12 01:56:03;;;;;;;120.53;58.20;;;;;;;-5.14;79.63;98177.52;1697522;83;21018;-81
2022/01/12 01:58:29;;;;;;;121.53;57.03;;;;;;;-5.07;79.51;98177.34;1677204;84;21107;-81
2022/01/12 02:00:54;;;;;;;128.15;62.83;;;;;;;-4.99;79.55;98177.55;1669640;86;21011;-81
2022/01/12 02:03:20;;;;;;;119.55;58.02;;;;;;;-4.95;79.32;98175.75;1669631;86;21431;-81
2022/01/12 02:05:47;;;;;;;128.25;62.23;;;;;;;-4.88;79.36;98170.91;1669308;85;21044;-81
2022/01/12 02:08:14;;;;;;;125.18;60.10;;;;;;;-4.90;79.36;98173.47;1669125;86;21347;-81
2022/01/12 02:10:45;;;;;;;116.75;56.80;;;;;;;-4.95;79.29;98170.23;1669320;86;21011;-81
2022/01/12 02:13:12;;;;;;;116.37;55.75;;;;;;;-4.90;79.33;98176.44;1669207;85;21421;-81
2022/01/12 02:15:39;;;;;;;116.22;56.15;;;;;;;-4.91;79.51;98172.25;1669447;86;21419;-81
2022/01/12 02:18:20;;;;;;;117.82;60.12;;;;;;;-4.89;79.42;98170.49;1669449;86;21066;-81
2022/01/12 02:37:17;;;;;;;108.92;51.37;;;;;;;-4.69;79.14;98163.61;1642842;86;21044;-80
2022/01/12 02:42:10;;;;;;;116.47;52.17;;;;;;;-4.79;79.20;98169.38;1607871;87;21084;-81
2022/01/12 02:55:34;;;;;;;106.47;50.28;;;;;;;-4.67;79.47;98166.92;1663975;83;21029;-81
2022/01/12 02:58:00;;;;;;;106.35;47.98;;;;;;;-4.77;79.34;98171.86;1685723;85;20996;-81
2022/01/12 03:00:36;;;;;;;105.22;48.38;;;;;;;-4.88;79.30;98177.26;1662691;85;20992;-81
2022/01/12 03:03:01;;;;;;;108.25;50.12;;;;;;;-4.87;79.39;98178.91;1656628;86;21418;-81
2022/01/12 03:05:35;;;;;;;103.40;49.25;;;;;;;-4.90;79.28;98173.47;1663883;86;21020;-81
2022/01/12 03:08:02;;;;;;;103.53;49.88;;;;;;;-4.89;79.50;98177.66;1660929;86;21008;-81
2022/01/12 03:10:25;;;;;;;109.45;51.80;;;;;;;-4.90;79.52;98179.80;1661178;86;21016;-81
2022/01/12 03:12:52;;;;;;;111.70;49.38;;;;;;;-4.93;79.54;98174.83;1660882;86;21111;-81
2022/01/12 03:15:17;;;;;;;114.40;51.53;;;;;;;-4.88;79.61;98173.02;1661704;86;21411;-81
2022/01/12 03:17:43;;;;;;;104.55;47.90;;;;;;;-4.83;79.57;98171.61;1661710;86;20996;-81
2022/01/12 03:20:10;;;;;;;106.50;48.83;;;;;;;-4.87;79.37;98170.04;1661692;86;21040;-81
2022/01/12 03:22:37;;;;;;;115.70;51.85;;;;;;;-4.87;79.52;98175.94;1661087;86;21045;-81
2022/01/12 03:25:04;;;;;;;108.87;51.98;;;;;;;-4.82;79.56;98179.61;1661781;86;21020;-81
2022/01/12 03:27:29;;;;;;;110.80;50.52;;;;;;;-4.79;79.85;98178.69;1661318;86;21047;-81
2022/01/12 03:29:56;;;;;;;114.95;51.48;;;;;;;-4.82;79.67;98178.34;1661742;86;21339;-81
2022/01/12 03:32:35;;;;;;;111.25;50.30;;;;;;;-4.75;79.90;98179.81;1665753;86;21070;-81
2022/01/12 04:09:45;;;;;;;91.08;44.67;;;;;;;-4.71;79.61;98152.69;1697794;83;21061;-82
2022/01/12 04:12:11;;;;;;;98.95;42.90;;;;;;;-4.78;79.63;98158.79;1675529;85;22222;-81
2022/01/12 04:14:36;;;;;;;92.75;42.08;;;;;;;-4.78;79.87;98154.98;1697435;85;20971;-81
2022/01/12 04:17:03;;;;;;;89.97;40.35;;;;;;;-4.81;79.80;98156.34;1697375;85;21003;-81
2022/01/12 04:19:28;;;;;;;97.97;43.95;;;;;;;-4.83;79.81;98169.07;1697308;85;20998;-81
2022/01/12 04:21:54;;;;;;;89.28;40.78;;;;;;;-4.85;79.77;98167.85;1697481;83;21042;-81
2022/01/12 04:24:20;;;;;;;90.72;40.67;;;;;;;-4.86;79.93;98170.00;1697344;85;21052;-81
2022/01/12 04:26:46;;;;;;;103.15;46.10;;;;;;;-4.84;80.24;98164.44;1697307;83;21055;-81
2022/01/12 04:29:13;;;;;;;89.65;41.63;;;;;;;-4.76;80.18;98164.64;1697070;85;21118;-81
2022/01/12 04:31:39;;;;;;;93.00;40.20;;;;;;;-4.78;80.19;98167.23;1697196;83;20980;-81
2022/01/12 04:34:05;;;;;;;93.33;41.83;;;;;;;-4.75;80.36;98172.20;1697404;83;21119;-81
2022/01/12 04:36:32;;;;;;;70.83;33.10;;;;;;;-4.79;80.28;98172.34;1697423;85;21141;-81
2022/01/12 04:38:59;;;;;;;97.82;40.75;;;;;;;-4.87;80.46;98178.48;1676125;85;20964;-81
2022/01/12 04:41:26;;;;;;;84.05;39.63;;;;;;;-4.94;80.39;98179.50;1697606;84;21044;-81
2022/01/12 04:43:52;;;;;;;84.85;39.03;;;;;;;-4.92;80.52;98174.39;1697331;85;21022;-81
2022/01/12 04:46:25;;;;;;;77.00;36.30;;;;;;;-4.89;80.69;98170.05;1697300;85;20983;-81
2022/01/12 04:48:52;;;;;;;76.92;36.38;;;;;;;-4.80;80.74;98173.22;1654292;85;21047;-81
2022/01/12 04:51:16;;;;;;;72.45;39.88;;;;;;;-4.81;80.50;98180.44;1675178;84;21011;-81
2022/01/12 04:53:41;;;;;;;71.10;36.58;;;;;;;-4.85;80.58;98183.06;1697298;84;21019;-81
2022/01/12 04:56:07;;;;;;;62.83;32.75;;;;;;;-4.80;80.72;98182.92;1691355;83;21003;-81
2022/01/12 04:58:33;;;;;;;64.95;32.50;;;;;;;-4.77;80.51;98184.10;1652847;84;21027;-81
2022/01/12 05:01:07;;;;;;;73.97;32.08;;;;;;;-4.81;80.25;98184.23;1697408;84;21394;-81
2022/01/12 05:09:14;;;;;;;53.25;27.85;;;;;;;-4.90;80.39;98201.36;1697528;83;21439;-81
2022/01/12 05:14:24;;;;;;;56.88;31.90;;;;;;;-4.97;80.69;98206.22;1697839;83;21012;-81
2022/01/12 05:16:49;;;;;;;59.27;30.62;;;;;;;-4.91;80.70;98207.30;1697542;84;20964;-81
2022/01/12 05:19:15;;;;;;;54.10;26.97;;;;;;;-4.82;80.91;98215.55;1697408;84;20988;-81
2022/01/12 05:21:41;;;;;;;54.30;29.75;;;;;;;-4.82;80.55;98207.94;1697623;83;20972;-81
2022/01/12 05:24:07;;;;;;;58.10;32.80;;;;;;;-4.86;80.56;98207.20;1697457;84;21475;-81
2022/01/12 05:26:34;;;;;;;57.30;29.18;;;;;;;-4.96;80.37;98205.78;1697428;84;21004;-80
2022/01/12 05:28:59;;;;;;;52.80;26.45;;;;;;;-4.98;80.59;98204.55;1697459;83;21032;-81
2022/01/12 05:31:26;;;;;;;46.65;26.57;;;;;;;-5.03;80.42;98203.86;1697572;84;21327;-81
2022/01/12 05:33:51;;;;;;;49.35;27.00;;;;;;;-5.03;80.54;98208.09;1697421;83;21411;-81
2022/01/12 05:36:18;;;;;;;37.42;21.42;;;;;;;-5.02;80.56;98210.59;1697551;83;21052;-81
2022/01/12 05:38:45;;;;;;;49.23;24.98;;;;;;;-5.04;80.72;98211.07;1697571;84;21363;-81
2022/01/12 05:41:12;;;;;;;45.75;26.95;;;;;;;-5.08;80.39;98214.53;1697661;84;21088;-81
2022/01/12 05:43:39;;;;;;;44.48;24.05;;;;;;;-5.09;80.59;98210.77;1697520;84;21008;-81
2022/01/12 05:46:11;;;;;;;44.60;25.88;;;;;;;-5.11;80.52;98208.28;1697590;84;20987;-81
2022/01/12 05:51:12;;;;;;;43.68;24.15;;;;;;;-5.08;80.66;98216.23;1669655;84;21059;-81
2022/01/12 05:53:38;;;;;;;47.05;26.48;;;;;;;-4.95;80.87;98212.51;1697472;84;20989;-81
2022/01/12 05:56:04;;;;;;;45.58;25.08;;;;;;;-4.88;80.56;98213.58;1695159;83;20989;-81
2022/01/12 05:58:30;;;;;;;46.50;26.33;;;;;;;-4.86;80.34;98216.91;1692578;83;22074;-81
2022/01/12 06:00:56;;;;;;;43.02;24.18;;;;;;;-4.85;80.17;98217.30;1669349;86;20983;-81
2022/01/12 06:03:21;;;;;;;39.90;22.17;;;;;;;-4.78;80.18;98222.19;1669314;86;21014;-81
2022/01/12 06:05:47;;;;;;;46.35;25.48;;;;;;;-4.76;80.01;98226.78;1669352;86;21434;-81
2022/01/12 06:08:13;;;;;;;48.13;26.95;;;;;;;-4.85;79.85;98228.70;1669365;86;21090;-81
2022/01/12 06:10:38;;;;;;;42.75;26.27;;;;;;;-4.82;80.15;98235.39;1669397;86;21063;-81
2022/01/12 06:13:04;;;;;;;27.32;17.48;;;;;;;-4.75;80.23;98239.41;1669466;86;21151;-81
2022/01/12 06:15:31;;;;;;;33.73;18.98;;;;;;;-4.73;79.64;98244.00;1669343;85;21474;-81
2022/01/12 06:17:56;;;;;;;40.73;22.55;;;;;;;-4.76;79.36;98245.36;1669406;86;21008;-81
2022/01/12 06:20:22;;;;;;;44.93;25.05;;;;;;;-4.76;79.45;98241.55;1669421;86;21034;-81
2022/01/12 06:22:48;;;;;;;51.13;26.65;;;;;;;-4.77;79.62;98246.67;1669387;85;21000;-81
2022/01/12 06:25:15;;;;;;;44.58;25.82;;;;;;;-4.69;79.82;98244.34;1669234;86;20992;-81
2022/01/12 06:27:51;;;;;;;45.63;25.27;;;;;;;-4.67;79.61;98246.83;1669298;86;21110;-81
2022/01/12 06:32:56;;;;;;;44.35;24.25;;;;;;;-4.54;79.96;98258.30;1676286;84;21449;-81
2022/01/12 06:35:22;;;;;;;47.70;26.33;;;;;;;-4.53;79.65;98252.34;1681545;85;20986;-81
2022/01/12 06:37:48;;;;;;;43.83;24.27;;;;;;;-4.60;79.38;98254.64;1681872;85;20954;-81
2022/01/12 06:40:16;;;;;;;47.20;25.30;;;;;;;-4.66;79.41;98254.39;1681594;85;21074;-81
2022/01/12 06:42:41;;;;;;;44.38;23.80;;;;;;;-4.70;79.70;98255.36;1681715;85;20981;-81
2022/01/12 06:45:08;;;;;;;47.03;26.27;;;;;;;-4.78;79.33;98257.69;1681603;85;21344;-81
2022/01/12 06:47:34;;;;;;;34.23;21.45;;;;;;;-4.82;79.72;98250.61;1681731;85;21045;-81
2022/01/12 06:50:00;;;;;;;32.00;19.92;;;;;;;-4.77;79.55;98255.55;1681670;85;21327;-81
2022/01/12 06:52:26;;;;;;;31.82;18.32;;;;;;;-4.72;79.38;98267.25;1681677;85;21028;-81
2022/01/12 06:54:51;;;;;;;25.08;17.12;;;;;;;-4.63;79.53;98272.49;1681666;85;21037;-81
2022/01/12 06:57:17;;;;;;;27.80;17.45;;;;;;;-4.57;79.35;98274.41;1681595;85;20994;-81
2022/01/12 06:59:43;;;;;;;31.90;19.10;;;;;;;-4.51;79.01;98272.16;1681521;85;21017;-81
2022/01/12 07:02:09;;;;;;;35.10;18.80;;;;;;;-4.50;78.71;98271.28;1681631;85;20966;-81
2022/01/12 07:04:35;;;;;;;32.48;20.30;;;;;;;-4.47;78.74;98276.27;1681536;85;21328;-81
2022/01/12 07:07:02;;;;;;;33.60;19.48;;;;;;;-4.43;78.78;98277.01;1681463;85;20938;-81
2022/01/12 07:09:28;;;;;;;32.88;18.85;;;;;;;-4.35;78.72;98281.00;1681699;85;21021;-81
2022/01/12 07:11:54;;;;;;;31.00;18.65;;;;;;;-4.36;78.16;98284.86;1681631;85;21009;-81
2022/01/12 07:14:20;;;;;;;32.90;18.62;;;;;;;-4.47;78.05;98283.88;1681516;85;21061;-81
2022/01/12 07:16:45;;;;;;;24.72;15.98;;;;;;;-4.53;77.55;98290.41;1681661;85;21326;-81
2022/01/12 07:19:11;;;;;;;25.27;16.90;;;;;;;-4.56;77.52;98291.73;1681387;85;21005;-81
2022/01/12 07:21:37;;;;;;;29.42;17.75;;;;;;;-4.57;77.52;98295.14;1681624;85;20978;-81
2022/01/12 07:24:04;;;;;;;28.02;18.17;;;;;;;-4.56;77.65;98295.53;1681528;85;21368;-81
2022/01/12 07:26:29;;;;;;;32.67;19.40;;;;;;;-4.56;77.33;98284.98;1681733;85;20970;-81
2022/01/12 07:28:56;;;;;;;30.90;18.17;;;;;;;-4.55;77.53;98288.35;1681558;85;20970;-81
2022/01/12 07:31:23;;;;;;;31.90;18.45;;;;;;;-4.47;77.72;98288.13;1681590;85;21365;-81
2022/01/12 07:33:54;;;;;;;25.12;16.82;;;;;;;-4.45;77.30;98299.89;1666424;85;21092;-81
2022/01/12 07:36:21;;;;;;;26.65;17.48;;;;;;;-4.47;77.22;98300.38;1661740;86;21044;-81
2022/01/12 07:38:55;;;;;;;37.48;20.37;;;;;;;-4.56;77.28;98296.80;1661696;86;20984;-80
2022/01/12 07:41:17;;;;;;;36.85;21.27;;;;;;;-4.64;77.56;98294.93;1661240;86;21087;-81
2022/01/12 07:43:43;;;;;;;35.17;21.65;;;;;;;-4.59;77.72;98299.43;1641584;86;21048;-81
2022/01/12 07:46:09;;;;;;;33.23;20.72;;;;;;;-4.58;78.03;98296.85;1661616;86;21352;-81
2022/01/12 07:48:35;;;;;;;37.25;22.37;;;;;;;-4.53;78.19;98298.02;1681012;83;21012;-81
2022/01/12 07:51:00;;;;;;;37.30;21.45;;;;;;;-4.48;78.23;98302.95;1670769;85;20981;-81
2022/01/12 07:53:26;;;;;;;31.37;20.77;;;;;;;-4.39;78.29;98308.62;1642649;86;21513;-81
2022/01/12 07:55:52;;;;;;;34.23;21.17;;;;;;;-4.34;78.00;98309.31;1661520;86;21008;-81
2022/01/12 07:58:18;;;;;;;31.65;20.37;;;;;;;-4.34;77.67;98302.97;1661657;86;21455;-81
2022/01/12 08:00:43;;;;;;;34.85;21.52;;;;;;;-4.36;77.31;98294.57;1661785;86;20984;-82
2022/01/12 08:03:09;;;;;;;32.70;20.08;;;;;;;-4.39;77.40;98284.95;1661448;86;21024;-81
2022/01/12 08:05:35;;;;;;;31.93;20.27;;;;;;;-4.43;77.16;98287.98;1661586;86;21019;-81
2022/01/12 08:08:01;;;;;;;31.45;19.85;;;;;;;-4.43;77.31;98297.30;1661692;86;21020;-81
2022/01/12 08:10:26;;;;;;;28.15;18.10;;;;;;;-4.36;77.37;98298.38;1661524;86;21404;-81
2022/01/12 08:12:52;;;;;;;28.85;16.82;;;;;;;-4.29;77.19;98297.75;1661310;86;21079;-81
2022/01/12 08:15:18;;;;;;;31.33;18.30;;;;;;;-4.23;77.08;98297.60;1661292;86;21025;-81
2022/01/12 08:17:44;;;;;;;33.40;21.55;;;;;;;-4.26;76.64;98315.42;1661667;86;20992;-81
2022/01/12 08:20:12;;;;;;;28.90;17.65;;;;;;;-4.33;76.62;98319.03;1661365;86;20996;-81
2022/01/12 08:22:38;;;;;;;32.88;20.97;;;;;;;-4.36;76.66;98320.39;1661497;86;21036;-81
2022/01/12 08:25:05;;;;;;;37.98;22.95;;;;;;;-4.48;76.44;98326.63;1661619;86;21430;-81
2022/01/12 08:27:31;;;;;;;42.50;22.85;;;;;;;-4.52;76.87;98330.56;1661661;86;21028;-81
2022/01/12 08:30:02;;;;;;;42.95;24.18;;;;;;;-4.46;77.30;98322.33;1661703;86;21083;-81
2022/01/12 08:32:25;;;;;;;48.90;26.82;;;;;;;-4.38;77.46;98320.43;1661340;85;21052;-81
2022/01/12 08:34:50;;;;;;;49.88;27.27;;;;;;;-4.28;77.34;98317.18;1669498;85;21018;-81
2022/01/12 08:37:16;;;;;;;29.72;18.23;;;;;;;-4.29;77.18;98317.63;1669250;85;21100;-81
2022/01/12 08:39:42;;;;;;;34.67;20.88;;;;;;;-4.30;76.83;98314.69;1669537;86;21007;-81
2022/01/12 08:42:07;;;;;;;30.12;19.65;;;;;;;-4.46;76.41;98321.06;1669346;86;21050;-81
2022/01/12 08:44:35;;;;;;;38.60;23.02;;;;;;;-4.53;76.47;98327.19;1669307;86;21031;-81
2022/01/12 08:47:01;;;;;;;39.03;22.77;;;;;;;-4.75;76.39;98331.16;1674418;83;21043;-81
2022/01/12 08:49:27;;;;;;;37.58;22.52;;;;;;;-4.85;77.03;98327.60;1671189;83;20992;-81
2022/01/12 08:51:52;;;;;;;33.38;19.48;;;;;;;-4.88;77.45;98325.59;1697369;84;20972;-81
2022/01/12 08:54:18;;;;;;;36.95;24.67;;;;;;;-4.90;77.43;98327.30;1697340;84;20940;-81
2022/01/12 08:56:45;;;;;;;36.85;23.05;;;;;;;-4.97;77.63;98325.81;1697381;84;20979;-81
2022/01/12 08:59:13;;;;;;;36.30;20.88;;;;;;;-4.90;78.08;98330.67;1697347;84;21589;-81
2022/01/12 09:01:39;;;;;;;35.50;21.80;;;;;;;-4.85;77.88;98336.48;1697357;82;21024;-81
2022/01/12 09:04:05;;;;;;;52.08;29.32;;;;;;;-4.94;77.32;98337.97;1697591;84;21060;-81
2022/01/12 09:06:30;;;;;;;33.90;20.27;;;;;;;-5.03;77.67;98339.48;1697363;84;21058;-81
2022/01/12 09:08:56;;;;;;;36.58;21.02;;;;;;;-5.03;77.96;98339.91;1697378;84;21385;-81
2022/01/12 09:11:22;;;;;;;35.90;20.68;;;;;;;-4.99;78.07;98336.43;1697312;84;21012;-81
2022/01/12 09:13:48;;;;;;;38.65;23.15;;;;;;;-4.89;78.58;98329.80;1697358;84;20983;-81
2022/01/12 09:16:13;;;;;;;38.02;23.30;;;;;;;-4.73;78.66;98333.20;1697311;84;20929;-81
2022/01/12 09:18:40;;;;;;;39.80;23.05;;;;;;;-4.73;78.11;98332.77;1697099;83;21408;-81
2022/01/12 09:21:06;;;;;;;29.77;20.05;;;;;;;-4.74;77.65;98330.28;1697523;84;21032;-81
2022/01/12 09:23:32;;;;;;;30.75;19.57;;;;;;;-4.77;77.02;98335.44;1720323;83;20993;-81
2022/01/12 09:25:58;;;;;;;38.53;23.12;;;;;;;-4.77;76.81;98340.07;1702785;83;20995;-81
2022/01/12 09:28:24;;;;;;;30.50;18.87;;;;;;;-4.70;77.32;98333.16;1697443;84;21350;-81
2022/01/12 09:30:51;;;;;;;30.02;18.90;;;;;;;-4.69;76.89;98345.80;1675855;84;21042;-81
2022/01/12 09:33:17;;;;;;;31.33;20.72;;;;;;;-4.64;76.53;98331.27;1701608;83;21071;-81
2022/01/12 09:35:45;;;;;;;31.05;20.02;;;;;;;-4.60;76.41;98332.02;1710043;84;20948;-81
2022/01/12 09:38:11;;;;;;;29.85;20.05;;;;;;;-4.59;76.77;98325.63;1709698;84;20982;-81
2022/01/12 09:40:38;;;;;;;29.98;20.10;;;;;;;-4.60;76.08;98320.16;1709966;83;20986;-81
2022/01/12 09:43:05;;;;;;;36.55;22.20;;;;;;;-4.55;76.80;98315.82;1690611;84;20939;-81
2022/01/12 09:45:32;;;;;;;32.30;21.73;;;;;;;-4.47;76.62;98307.16;1709979;84;20974;-81
2022/01/12 09:47:58;;;;;;;36.03;20.52;;;;;;;-4.43;76.50;98299.84;1701263;82;21366;-81
2022/01/12 09:50:23;;;;;;;33.15;17.98;;;;;;;-4.39;76.57;98294.66;1681676;85;20922;-81
2022/01/12 09:52:50;;;;;;;38.15;21.10;;;;;;;-4.34;75.66;98278.03;1681699;85;20985;-81
2022/01/12 09:55:17;;;;;;;29.75;17.98;;;;;;;-4.38;75.92;98277.73;1681783;85;21313;-81
2022/01/12 09:57:42;;;;;;;28.70;17.17;;;;;;;-4.31;76.24;98273.69;1681533;85;20973;-81
2022/01/12 10:00:09;;;;;;;33.78;18.77;;;;;;;-4.31;75.18;98276.67;1681645;85;21021;-82
2022/01/12 10:02:35;;;;;;;31.57;20.85;;;;;;;-4.34;75.59;98276.32;1681539;85;20926;-81
2022/01/12 10:05:05;;;;;;;30.92;19.25;;;;;;;-4.27;75.37;98280.77;1681454;85;20980;-81
2022/01/12 10:07:31;;;;;;;35.43;20.45;;;;;;;-4.29;75.22;98273.20;1681750;85;21081;-81
2022/01/12 10:10:14;;;;;;;28.15;19.32;;;;;;;-4.22;75.24;98270.06;1681240;85;20998;-81
2022/01/12 10:12:39;;;;;;;25.55;15.93;;;;;;;-4.11;75.63;98262.12;1674983;85;20997;-81
2022/01/12 10:15:13;;;;;;;30.80;20.12;;;;;;;-4.23;74.17;98258.25;1681415;85;20977;-81
2022/01/12 10:17:46;;;;;;;31.37;21.48;;;;;;;-4.26;74.98;98267.20;1681574;85;20993;-81
2022/01/12 10:20:18;;;;;;;34.80;20.48;;;;;;;-4.23;74.90;98276.02;1681502;85;20942;-81
2022/01/12 10:22:57;;;;;;;35.85;20.12;;;;;;;-4.29;74.98;98283.36;1681695;85;20966;-81
2022/01/12 10:25:23;;;;;;;23.25;14.58;;;;;;;-4.29;74.98;98283.36;1681583;85;21016;-81
2022/01/12 10:27:49;;;;;;;30.02;20.02;;;;;;;-4.25;74.15;98282.83;1681565;85;21369;-81
2022/01/12 10:30:28;;;;;;;34.58;20.37;;;;;;;-4.38;74.47;98293.78;1681371;85;21061;-81
2022/01/12 10:33:10;;;;;;;33.30;21.82;;;;;;;-4.44;74.48;98291.40;1680694;85;20966;-81
2022/01/12 10:35:42;;;;;;;32.63;20.48;;;;;;;-4.36;74.76;98282.32;1682671;85;20946;-81
2022/01/12 10:38:10;;;;;;;32.08;21.23;;;;;;;-4.33;74.77;98285.59;1681867;85;20966;-81
2022/01/12 10:40:52;;;;;;;33.08;20.68;;;;;;;-4.39;74.12;98289.59;1681802;85;21050;-81
2022/01/12 10:43:42;;;;;;;31.33;19.85;;;;;;;-4.38;74.59;98287.44;1682178;85;20970;-81
2022/01/12 10:46:12;;;;;;;30.68;18.77;;;;;;;-4.31;74.35;98280.03;1681873;85;21042;-81
2022/01/12 10:48:46;;;;;;;33.85;20.32;;;;;;;-4.20;74.32;98272.56;1680502;85;21042;-81
2022/01/12 10:51:16;;;;;;;35.10;21.80;;;;;;;-4.13;74.38;98268.52;1681726;85;21060;-81
2022/01/12 10:53:42;;;;;;;34.00;21.65;;;;;;;-4.06;74.39;98264.94;1681554;85;20984;-81
2022/01/12 10:56:11;;;;;;;34.10;21.82;;;;;;;-4.05;73.93;98265.77;1681722;85;21371;-82
2022/01/12 10:58:40;;;;;;;36.73;23.85;;;;;;;-4.18;73.26;98261.92;1695184;82;21018;-81
2022/01/12 11:01:06;;;;;;;33.63;20.60;;;;;;;-4.14;73.83;98257.14;1710012;84;20947;-81
2022/01/12 11:03:32;;;;;;;32.25;20.10;;;;;;;-4.08;73.63;98255.23;1710125;83;21058;-81
2022/01/12 11:05:58;;;;;;;29.72;18.73;;;;;;;-4.08;72.89;98256.94;1710116;84;21026;-81
2022/01/12 11:08:24;;;;;;;30.08;19.40;;;;;;;-4.05;73.18;98265.77;1689671;84;20985;-81
2022/01/12 11:10:55;;;;;;;32.70;21.37;;;;;;;-4.09;72.82;98274.33;1710167;84;20970;-81
2022/01/12 11:13:22;;;;;;;31.52;19.27;;;;;;;-4.16;72.78;98273.69;1709919;84;20962;-82
2022/01/12 11:15:49;;;;;;;28.17;17.15;;;;;;;-4.13;72.45;98271.05;1688315;84;21373;-81
2022/01/12 11:18:16;;;;;;;30.45;19.60;;;;;;;-4.11;71.50;98263.39;1710238;83;20982;-81
2022/01/12 11:20:43;;;;;;;29.67;17.67;;;;;;;-4.16;71.80;98258.45;1709941;84;20994;-81
2022/01/12 11:23:15;;;;;;;28.07;18.40;;;;;;;-4.26;71.45;98259.59;1710006;84;20923;-82
2022/01/12 11:25:42;;;;;;;;;;;;;;;-4.22;71.87;98255.28;1712606;83;21098;-81
2022/01/12 11:28:14;;;;;;;32.67;17.67;;;;;;;-4.23;71.04;98258.25;1710189;84;20105;-81
2022/01/12 11:30:54;;;;;;;34.80;21.07;;;;;;;-4.30;71.04;98270.72;1710211;84;21455;-81
2022/01/12 11:33:31;;;;;;;27.75;18.62;;;;;;;-4.29;71.52;98265.59;1687557;84;21379;-81
2022/01/12 11:36:14;;;;;;;31.27;18.52;;;;;;;-4.17;71.38;98262.31;1666197;85;21067;-81
2022/01/12 11:38:39;;;;;;;31.00;18.90;;;;;;;-4.26;70.78;98273.55;1683988;85;21375;-81
2022/01/12 11:41:23;;;;;;;31.55;19.65;;;;;;;-4.21;70.99;98265.83;1689332;85;21011;-81
2022/01/12 11:43:58;;;;;;;27.87;17.70;;;;;;;-4.12;71.33;98254.11;1689303;85;21402;-81
2022/01/12 11:46:47;;;;;;;29.70;17.80;;;;;;;-3.95;70.92;98254.44;1689412;85;21103;-81
2022/01/12 11:49:36;;;;;;;30.02;18.95;;;;;;;-3.90;70.67;98239.91;1701436;83;20988;-81
2022/01/12 11:52:26;;;;;;;27.37;17.30;;;;;;;-3.79;70.77;98226.85;1697349;84;21030;-81
2022/01/12 11:55:13;;;;;;;28.20;18.23;;;;;;;-3.69;70.42;98217.63;1697179;85;21003;-82
2022/01/12 11:57:41;;;;;;;29.95;19.25;;;;;;;-3.67;70.24;98217.58;1678722;85;21026;-82
2022/01/12 12:00:17;;;;;;;28.25;18.12;;;;;;;-3.63;70.50;98232.67;1696868;83;21473;-82
2022/01/12 12:02:51;;;;;;;27.95;17.95;;;;;;;-3.69;69.92;98245.58;1696756;84;21027;-81
2022/01/12 12:05:20;;;;;;;26.70;16.15;;;;;;;-3.69;69.79;98258.28;1697289;83;20952;-81
2022/01/12 12:08:03;;;;;;;29.90;20.92;;;;;;;-3.71;69.17;98260.05;1697140;84;21040;-81
2022/01/12 12:10:34;;;;;;;26.68;17.37;;;;;;;-3.66;69.66;98266.23;1697197;84;21043;-81
2022/01/12 12:13:00;;;;;;;26.45;16.20;;;;;;;-3.63;69.60;98261.06;1695838;84;21003;-81
2022/01/12 12:15:28;;;;;;;26.02;16.02;;;;;;;-3.72;68.92;98257.11;1697261;84;21401;-81
2022/01/12 12:17:55;;;;;;;26.30;17.10;;;;;;;-3.76;69.08;98255.96;1697275;84;20987;-82
2022/01/12 12:20:23;;;;;;;27.10;16.50;;;;;;;-3.73;68.99;98252.08;1697206;83;21410;-82
2022/01/12 12:22:49;;;;;;;32.75;18.52;;;;;;;-3.73;68.70;98244.46;1697396;84;21048;-82
2022/01/12 12:25:20;;;;;;;26.50;16.55;;;;;;;-3.74;68.86;98252.52;1697379;84;21359;-81
2022/01/12 12:27:58;;;;;;;30.20;19.00;;;;;;;-3.70;69.28;98254.08;1697213;84;20956;-81
2022/01/12 12:30:25;;;;;;;30.37;18.12;;;;;;;-3.61;69.34;98263.11;1697128;84;21181;-81
2022/01/12 12:33:00;;;;;;;28.05;16.50;;;;;;;-3.57;68.90;98263.42;1697200;84;21111;-81
2022/01/12 12:35:28;;;;;;;32.57;17.97;;;;;;;-3.60;68.79;98254.60;1687780;83;21036;-82
2022/01/12 12:37:56;;;;;;;30.60;16.52;;;;;;;-3.63;68.30;98255.97;1688952;85;21411;-82
2022/01/12 12:40:41;;;;;;;29.50;19.23;;;;;;;-3.65;67.99;98259.84;1688868;85;21036;-82
2022/01/12 12:43:21;;;;;;;26.65;17.15;;;;;;;-3.63;68.31;98255.97;1689317;85;20964;-82
2022/01/12 12:45:48;;;;;;;28.47;17.52;;;;;;;-3.59;68.12;98254.98;1688423;85;21337;-82
2022/01/12 12:48:17;;;;;;;29.80;18.05;;;;;;;-3.55;68.45;98245.14;1689290;85;21394;-82
2022/01/12 12:50:44;;;;;;;28.02;17.32;;;;;;;-3.50;68.37;98239.46;1689196;85;21024;-82
2022/01/12 12:53:10;;;;;;;29.12;17.67;;;;;;;-3.48;68.09;98232.61;1689218;85;21371;-82
2022/01/12 12:55:39;;;;;;;30.32;17.87;;;;;;;-3.43;68.39;98233.28;1689307;85;21004;-82
2022/01/12 12:58:05;;;;;;;29.45;18.45;;;;;;;-3.40;67.64;98237.47;1683384;83;20976;-81
2022/01/12 13:00:30;;;;;;;26.97;16.93;;;;;;;-3.38;67.90;98233.98;1677579;85;21063;-82